Latest Coastal Weather Observations for Esperance

IDW60701

Issued at 9:52 am WST Sunday 29 May 2016 (issued every 10 minutes, with the page automatically refreshed every 10 minutes)

About coastal observations | Map of coastal stations | Coastal observations for WA | Marine services | Other Formats
Station Details ID: 009789 Name: ESPERANCE Lat: -33.83 Lon: 121.89 Height: 25.0 m
Data from the previous 72 hours. | See also: Recent months at Esperance
Date/Time
WST
Temp

°C
Wind Pressure Rain
since 9am
mm
Weather Cloud Vis
km
Sea
Height
m
Swell
Dir
 
Speed
knots
Gust
knots
hPa Trend Height
m
Period
s
Dir
29/09:30am 12.6 NW 8 11 1016.9 - 0.0 - Partly cloudy 10 - - - -
29/09:00am 12.1 WNW 7 10 1016.8 R 18.6 Recent precip. Cloudy 10 - - - -
29/08:39am 11.6 WNW 7 11 1016.7 - 18.6 - Partly cloudy 10 - - - -
29/08:30am 11.3 NW 8 10 1016.7 - 18.6 - Partly cloudy 8 - - - -
29/08:18am 11.2 WNW 9 13 1016.7 - 18.4 - Partly cloudy 7 - - - -
29/08:16am 11.2 WNW 10 13 1016.7 - 18.2 - Partly cloudy 10 - - - -
29/08:00am 10.8 WNW 10 16 1016.4 - 18.0 - Partly cloudy 5 - - - -
29/07:57am 10.8 WNW 10 16 1016.4 - 17.8 - Partly cloudy 7 - - - -
29/07:49am 10.8 WNW 9 13 1016.2 - 17.2 - Partly cloudy 10 - - - -
29/07:35am 10.7 WNW 10 14 1016.1 - 17.2 - Partly cloudy 7 - - - -
29/07:30am 10.6 WNW 9 13 1016.1 - 17.2 - Partly cloudy 10 - - - -
29/07:09am 10.4 NW 10 13 1015.7 - 17.2 - Partly cloudy 10 - - - -
29/07:00am 10.4 NW 9 13 1015.6 - 17.2 - Partly cloudy 9 - - - -
29/06:52am 10.4 WNW 9 13 1015.6 - 17.0 - Partly cloudy 7 - - - -
29/06:30am 10.3 NW 10 14 1015.2 - 16.8 - Partly cloudy 10 - - - -
29/06:00am 10.4 WNW 12 17 1015.0 R 16.6 Recent precip. Mostly cloudy 10 - - - -
29/05:36am 10.9 NW 10 14 1014.6 - 16.6 - Partly cloudy 10 - - - -
29/05:30am 10.8 NW 9 12 1014.6 - 16.6 - Partly cloudy 10 - - - -
29/05:12am 10.5 WNW 7 11 1014.6 - 15.8 - Partly cloudy 7 - - - -
29/05:00am 10.4 NW 8 12 1014.4 - 15.8 - Partly cloudy 10 - - - -
29/04:57am 10.4 NW 8 12 1014.4 - 15.8 - Partly cloudy 10 - - - -
29/04:33am 10.3 WNW 10 14 1014.3 - 15.8 - Partly cloudy 7 - - - -
29/04:30am 10.4 WNW 10 14 1014.3 - 15.8 - Partly cloudy 10 - - - -
29/04:16am 10.4 WNW 10 13 1014.1 - 15.6 - Partly cloudy 10 - - - -
29/04:00am 10.6 WNW 8 12 1014.2 - 15.4 - Partly cloudy 4 - - - -
29/03:48am 10.5 NW 7 9 1014.0 - 14.8 - Partly cloudy 7 - - - -
29/03:34am 10.4 NW 8 10 1013.7 - 14.6 - Partly cloudy 10 - - - -
29/03:30am 10.5 NW 8 11 1013.7 - 14.6 - Partly cloudy 10 - - - -
29/03:00am 10.5 WNW 8 12 1013.8 R 14.2 Rain Mostly cloudy 4 - - - -
29/02:51am 10.6 WNW 7 12 1013.7 - 13.4 - Partly cloudy 7 - - - -
29/02:45am 10.6 NW 6 8 1013.7 - 13.0 - Partly cloudy 10 - - - -
29/02:30am 10.6 WNW 10 15 1013.9 - 13.0 - Partly cloudy 5 - - - -
29/02:10am 10.7 W 10 15 1013.8 - 12.2 - Partly cloudy 6 - - - -
29/02:00am 10.8 WNW 9 13 1013.6 - 11.8 - Partly cloudy 10 - - - -
29/01:30am 10.3 NW 9 12 1013.4 - 11.8 - Partly cloudy 10 - - - -
29/01:20am 10.4 NW 10 13 1013.4 - 11.8 - Partly cloudy 10 - - - -
29/01:00am 10.4 WNW 9 13 1013.6 - 11.6 - Partly cloudy 4 - - - -
29/12:37am 10.3 WNW 8 12 1013.5 - 10.8 - Partly cloudy 7 - - - -
29/12:30am 10.4 WNW 8 11 1013.6 - 10.6 - Partly cloudy 10 - - - -
29/12:16am 10.5 WNW 7 10 1013.6 - 10.4 - Partly cloudy 10 - - - -
29/12:00am 10.7 WNW 8 12 1013.7 R 10.2 Rain Cloudy 7 - - - -
 
Date/Time
WST
Temp

°C
Wind Pressure Rain
since 9am
mm
Weather Cloud Vis
km
Sea
Height
m
Swell
Dir
 
Speed
knots
Gust
knots
hPa Trend Height
m
Period
s
Dir
28/11:30pm 11.0 NW 8 11 1013.5 - 9.8 - Partly cloudy 10 - - - -
28/11:17pm 11.2 WNW 8 11 1013.5 - 9.8 - Partly cloudy 10 - - - -
28/11:00pm 11.4 W 8 16 1013.6 - 9.6 - Partly cloudy 6 - - - -
28/10:59pm 11.4 W 8 14 1013.7 - 9.4 - Partly cloudy 7 - - - -
28/10:30pm 11.4 WNW 7 9 1013.5 - 9.0 - Partly cloudy 10 - - - -
28/10:19pm 11.7 WNW 9 11 1013.5 - 9.0 - Partly cloudy 10 - - - -
28/10:01pm 11.9 WNW 10 15 1013.5 - 8.8 - Partly cloudy 7 - - - -
28/10:00pm 11.9 WNW 10 15 1013.5 - 8.6 - Partly cloudy 9 - - - -
28/09:30pm 12.0 W 8 11 1013.2 - 7.8 - Partly cloudy 10 - - - -
28/09:21pm 12.1 W 7 12 1013.2 - 7.8 - Partly cloudy 10 - - - -
28/09:00pm 11.8 W 8 13 1013.6 R 7.0 Rain Cloudy 7 - - - -
28/08:47pm 11.5 WNW 7 10 1013.3 - 6.2 - Partly cloudy 10 - - - -
28/08:30pm 11.8 WNW 10 17 1013.6 - 5.8 - Partly cloudy 5 - - - -
28/08:02pm 12.1 NW 10 17 1013.6 - 2.0 - Partly cloudy 6 - - - -
28/08:00pm 12.0 NW 8 15 1013.5 - 1.2 - Partly cloudy 10 - - - -
28/07:30pm 12.1 NW 5 5 1013.0 - 1.0 - Partly cloudy 10 - - - -
28/07:05pm 12.9 W 6 11 1013.0 - 1.0 - Partly cloudy 10 - - - -
28/07:00pm 12.7 WNW 6 11 1013.0 - 1.0 - Partly cloudy 10 - - - -
28/06:45pm 14.3 WSW 5 7 1012.9 - 0.8 - Partly cloudy 7 - - - -
28/06:30pm 14.3 WNW 5 6 1012.6 - 0.0 - Partly cloudy 10 - - - -
28/06:00pm 15.1 W 5 7 1012.3 R 0.0 - Partly cloudy 10 - - - -
28/05:30pm 15.6 WSW 6 9 1012.1 - 0.0 - Partly cloudy 10 - - - -
28/05:00pm 16.1 WSW 8 12 1011.8 - 0.0 - Partly cloudy 10 - - - -
28/04:30pm 16.8 WSW 10 15 1011.5 - 0.0 - Partly cloudy 10 - - - -
28/04:00pm 17.4 WSW 9 16 1011.2 - 0.0 - - 10 - - - -
28/03:30pm 17.7 WSW 11 18 1010.9 - 0.0 - - 10 - - - -
28/03:00pm 18.0 WSW 11 20 1010.9 R 0.0 - - 10 - - - -
28/02:30pm 18.2 WSW 11 19 1010.5 - 0.0 - Partly cloudy 10 - - - -
28/02:00pm 18.5 WSW 11 20 1010.2 - 0.0 - - 10 - - - -
28/01:30pm 17.7 WSW 11 20 1010.0 - 0.0 - Partly cloudy 10 - - - -
28/01:00pm 19.1 WNW 15 23 1009.9 - 0.0 - - 10 - - - -
28/12:30pm 18.1 NW 15 21 1010.1 - 0.0 - Partly cloudy 10 - - - -
28/12:00pm 17.7 NW 11 16 1010.6 F 0.0 - Cloudy 10 - - - -
28/11:30am 15.7 NW 13 17 1011.2 - 0.0 - Partly cloudy 10 - - - -
28/11:00am 13.7 NNW 13 17 1011.8 - 0.0 - Partly cloudy 10 - - - -
28/10:30am 13.5 NNW 12 16 1012.4 - 0.0 - Partly cloudy 10 - - - -
28/10:00am 13.0 NNW 13 18 1013.1 - 0.0 - Partly cloudy 10 - - - -
28/09:30am 13.0 NW 15 20 1013.5 - 0.0 - Partly cloudy 10 - - - -
28/09:00am 12.1 N 12 17 1012.8 F 0.0 - Cloudy 10 - - - -
28/08:30am 10.8 N 13 18 1013.1 - 0.0 - Partly cloudy 10 - - - -
28/08:00am 10.3 N 13 19 1013.3 - 0.0 - Partly cloudy 10 - - - -
28/07:30am 9.9 N 14 18 1013.6 - 0.0 - Partly cloudy 10 - - - -
28/07:00am 9.6 N 14 19 1013.6 - 0.0 - Partly cloudy 10 - - - -
28/06:30am 9.4 N 12 17 1013.8 - 0.0 - Partly cloudy 10 - - - -
28/06:00am 9.1 N 11 15 1014.1 F 0.0 - Mostly cloudy 10 - - - -
28/05:30am 8.5 N 11 15 1014.3 - 0.0 - - 10 - - - -
28/05:00am 8.6 N 11 14 1014.4 - 0.0 - - 10 - - - -
28/04:30am 8.6 NNE 9 12 1014.8 - 0.0 - - 10 - - - -
28/04:00am 8.8 NNE 10 14 1015.0 - 0.0 - - 10 - - - -
28/03:30am 9.2 NNE 12 16 1015.1 - 0.0 - - 10 - - - -
28/03:00am 9.6 N 11 14 1015.6 F 0.0 - - 10 - - - -
28/02:30am 9.5 N 11 15 1015.7 - 0.0 - - 10 - - - -
28/02:00am 9.5 NNE 11 16 1016.1 - 0.0 - - 10 - - - -
28/01:30am 9.9 NNE 11 15 1016.7 - 0.0 - - 10 - - - -
28/01:00am 10.3 NNE 13 17 1017.1 - 0.0 - - 10 - - - -
28/12:30am 10.4 NNE 11 16 1017.6 - 0.0 - - 10 - - - -
28/12:00am 10.4 NNE 9 13 1018.3 F 0.0 - - 10 - - - -
 
Date/Time
WST
Temp

°C
Wind Pressure Rain
since 9am
mm
Weather Cloud Vis
km
Sea
Height
m
Swell
Dir
 
Speed
knots
Gust
knots
hPa Trend Height
m
Period
s
Dir
27/11:30pm 10.0 NNE 8 12 1018.7 - 0.0 - - 10 - - - -
27/11:00pm 9.3 NNE 6 7 1019.1 - 0.0 - - 10 - - - -
27/10:30pm 9.9 NNE 7 9 1019.4 - 0.0 - - 10 - - - -
27/10:00pm 10.1 NNE 8 9 1019.5 - 0.0 - - 10 - - - -
27/09:30pm 10.3 NNE 7 8 1019.6 - 0.0 - - 10 - - - -
27/09:00pm 10.4 NNE 7 9 1019.9 F 0.0 - - 10 - - - -
27/08:30pm 10.6 NNE 5 7 1020.3 - 0.0 - - 10 - - - -
27/08:00pm 11.1 NNE 6 7 1020.2 - 0.0 - - 10 - - - -
27/07:30pm 11.4 NNE 6 7 1020.2 - 0.0 - - 10 - - - -
27/07:00pm 11.7 NE 5 6 1020.3 - 0.0 - - 10 - - - -
27/06:30pm 12.6 ENE 5 6 1020.3 - 0.0 - - 10 - - - -
27/06:00pm 13.6 E 6 9 1020.4 F 0.0 - - 10 - - - -
27/05:30pm 14.8 E 5 7 1020.6 - 0.0 - - 10 - - - -
27/05:00pm 14.8 SE 4 5 1020.7 - 0.0 - - 10 - - - -
27/04:30pm 15.4 ESE 5 6 1020.6 - 0.0 - - 10 - - - -
27/04:00pm 15.9 ESE 6 8 1020.6 - 0.0 - - 10 - - - -
27/03:30pm 16.4 SE 6 8 1020.8 - 0.0 - - 10 - - - -
27/03:00pm 16.7 SE 7 9 1021.1 F 0.0 - - 10 - - - -
27/02:30pm 17.6 SE 6 8 1021.3 - 0.0 - Mostly clear 10 - - - -
27/02:00pm 18.1 SSW 2 5 1021.4 - 0.0 - Mostly clear 10 - - - -
27/01:30pm 17.3 WSW 5 8 1021.8 - 0.0 - Mostly clear 10 - - - -
27/01:00pm 17.6 NW 9 12 1022.3 - 0.0 - Mostly clear 10 - - - -
27/12:30pm 18.2 NW 9 12 1022.6 - 0.0 - Mostly clear 10 - - - -
27/12:00pm 17.3 WNW 7 11 1023.0 S 0.0 - Cloudy 10 - - - -
27/11:30am 17.2 NW 7 9 1023.4 - 0.0 - Cloudy 10 - - - -
27/11:00am 16.2 WNW 8 10 1023.8 - 0.0 - Mostly clear 10 - - - -
27/10:30am 15.8 NW 9 13 1024.1 - 0.0 - Mostly clear 10 - - - -
27/10:00am 15.1 NW 8 11 1024.0 - 0.0 - Mostly clear 10 - - - -
27/09:30am 14.2 WNW 7 10 1024.2 - 0.0 - Mostly clear 10 - - - -
27/09:00am 13.7 NW 8 10 1024.0 R 0.6 - Mostly cloudy 10 - - - -
27/08:30am 12.1 NW 9 11 1024.1 - 0.6 - Mostly clear 10 - - - -
27/08:00am 11.5 NW 9 12 1023.8 - 0.6 - Mostly clear 10 - - - -
27/07:30am 10.7 WNW 8 10 1023.3 - 0.6 - Mostly clear 10 - - - -
27/07:00am 10.9 NW 9 11 1022.9 - 0.6 - Partly cloudy 10 - - - -
27/06:30am 10.7 NW 7 9 1022.5 - 0.6 - Cloudy 10 - - - -
27/06:00am 10.8 NW 9 12 1022.1 F 0.6 - Mostly cloudy 10 - - - -
27/05:30am 10.8 WNW 10 14 1022.3 - 0.6 - Partly cloudy 10 - - - -
27/05:00am 10.8 NW 10 11 1022.3 - 0.6 - Partly cloudy 10 - - - -
27/04:30am 10.4 NW 8 11 1022.0 - 0.6 - Partly cloudy 10 - - - -
27/04:00am 10.7 WNW 9 11 1021.9 - 0.6 - Partly cloudy 10 - - - -
27/03:30am 10.6 WNW 8 11 1021.8 - 0.6 - Partly cloudy 10 - - - -
27/03:00am 10.9 WNW 10 13 1022.2 R 0.6 - - 10 - - - -
27/02:30am 11.2 WNW 9 11 1022.1 - 0.6 - Partly cloudy 10 - - - -
27/02:00am 11.5 WNW 8 11 1022.0 - 0.6 - Partly cloudy 10 - - - -
27/01:30am 11.4 NW 7 10 1021.7 - 0.6 - Partly cloudy 10 - - - -
27/01:00am 11.2 NW 8 11 1021.6 - 0.6 - Partly cloudy 10 - - - -
27/12:51am 11.1 NW 9 12 1021.6 - 0.6 - Partly cloudy 10 - - - -
27/12:34am 11.1 WNW 10 14 1021.8 - 0.6 - Partly cloudy 7 - - - -
27/12:30am 11.4 WNW 11 14 1021.7 - 0.4 - Partly cloudy 10 - - - -
27/12:00am 11.2 WNW 7 10 1021.5 R 0.4 - Mostly clear 10 - - - -
 
Date/Time
WST
Temp

°C
Wind Pressure Rain
since 9am
mm
Weather Cloud Vis
km
Sea
Height
m
Swell
Dir
 
Speed
knots
Gust
knots
hPa Trend Height
m
Period
s
Dir
26/11:30pm 12.1 WNW 10 13 1021.3 - 0.4 - Partly cloudy 10 - - - -
26/11:00pm 12.4 WNW 9 13 1021.2 - 0.4 - Partly cloudy 10 - - - -
26/10:30pm 12.2 NW 8 13 1020.9 - 0.4 - Partly cloudy 10 - - - -
26/10:00pm 12.6 NW 6 8 1020.8 - 0.4 - Partly cloudy 10 - - - -
26/09:30pm 12.9 NW 4 8 1020.5 - 0.4 - Partly cloudy 10 - - - -
26/09:00pm 14.8 WSW 7 12 1020.6 R 0.4 - - 10 - - - -
26/08:30pm 14.9 WSW 8 11 1020.6 - 0.4 - Partly cloudy 10 - - - -
26/08:00pm 14.1 WNW 5 9 1020.6 - 0.4 - Partly cloudy 10 - - - -
26/07:30pm 14.3 WSW 6 9 1020.1 - 0.4 - Partly cloudy 10 - - - -
26/07:00pm 14.4 WSW 6 9 1019.6 - 0.4 - Partly cloudy 10 - - - -
26/06:30pm 14.7 WSW 5 9 1019.5 - 0.4 - Partly cloudy 10 - - - -
26/06:00pm 14.8 WSW 7 10 1019.0 R 0.4 - Mostly clear 10 - - - -
26/05:30pm 15.1 WSW 8 13 1018.7 - 0.4 - - 10 - - - -
26/05:00pm 15.1 WSW 8 11 1018.1 - 0.4 - - 10 - - - -
26/04:30pm 15.5 WSW 9 16 1017.7 - 0.4 - - 10 - - - -
26/04:00pm 15.8 WSW 11 18 1017.5 - 0.4 - Partly cloudy 10 - - - -
26/03:30pm 16.0 WSW 11 17 1017.1 - 0.4 - Partly cloudy 10 - - - -
26/03:00pm 13.9 W 11 16 1016.9 R 0.4 Rain Mostly cloudy 10 - - - -
26/02:59pm 13.8 W 11 16 1016.9 - 0.4 - Partly cloudy 10 - - - -
26/02:41pm 14.1 SW 15 25 1016.5 - 0.2 - Partly cloudy 7 - - - -
26/02:35pm 16.3 WSW 15 25 1016.3 - 0.0 - Partly cloudy 10 - - - -
26/02:30pm 17.9 W 13 19 1015.8 - 0.0 - Partly cloudy 10 - - - -
26/02:00pm 17.6 W 16 25 1015.8 - 0.0 - Mostly clear 10 - - - -
26/01:30pm 17.5 W 14 23 1015.5 - 0.0 - Mostly clear 10 - - - -
26/01:00pm 17.5 WSW 14 24 1014.8 - 0.0 - Mostly clear 10 - - - -
26/12:39pm 17.1 W 15 25 1014.6 - 0.0 - Partly cloudy 10 - - - -
26/12:30pm 17.1 W 13 21 1014.8 - 0.0 - Partly cloudy 10 - - - -
26/12:17pm 16.6 W 15 25 1014.4 - 0.0 - Partly cloudy 10 - - - -
26/12:00pm 16.9 W 16 25 1014.4 R 0.0 - Cloudy 10 - - - -
26/11:30am 16.8 W 15 25 1014.2 - 0.0 - Mostly clear 10 - - - -
26/11:21am 16.4 W 15 25 1014.2 - 0.0 - Mostly clear 10 - - - -
26/11:00am 16.5 W 13 23 1014.4 - 0.0 - Mostly clear 10 - - - -
26/10:50am 16.6 W 15 27 1014.2 - 0.0 - Mostly clear 10 - - - -
26/10:30am 16.8 W 14 23 1014.3 - 0.0 - Mostly clear 10 - - - -
26/10:00am 16.2 WNW 13 21 1014.0 - 0.0 - Mostly clear 10 - - - -

Other Formats:

Comma delimited format used in spreadsheet applications
http://www.bom.gov.au/fwo/IDW60701/IDW60701.94638.axf

JavaScript Object Notation format (JSON) in row-major order
http://www.bom.gov.au/fwo/IDW60701/IDW60701.94638.json